createdAt,value
2018-05-25T00:00:44.881Z,0.00
2018-05-25T00:01:44.891Z,0.00
2018-05-25T00:03:38.858Z,0.00
2018-05-25T00:04:38.354Z,0.00
2018-05-25T00:06:32.825Z,0.00
2018-05-25T00:07:32.797Z,0.00
2018-05-25T00:09:28.746Z,0.00
2018-05-25T00:10:28.756Z,0.00
2018-05-25T00:12:24.687Z,0.00
2018-05-25T00:13:25.208Z,0.00
2018-05-25T00:15:19.155Z,0.00
2018-05-25T00:16:19.151Z,0.00
2018-05-25T00:18:12.628Z,0.00
2018-05-25T00:19:12.613Z,0.00
2018-05-25T00:21:06.022Z,0.00
2018-05-25T00:22:06.025Z,0.00
2018-05-25T00:24:00.499Z,0.00
2018-05-25T00:25:00.494Z,0.00
2018-05-25T00:26:54.932Z,0.00
2018-05-25T00:27:55.447Z,0.00
2018-05-25T00:29:49.405Z,0.00
2018-05-25T00:30:49.394Z,0.00
2018-05-25T00:32:45.374Z,0.00
2018-05-25T00:33:45.342Z,0.00
2018-05-25T00:35:39.799Z,0.00
2018-05-25T00:36:39.795Z,0.00
2018-05-25T00:38:34.747Z,0.00
2018-05-25T00:39:35.760Z,0.00
2018-05-25T00:41:29.209Z,0.00
2018-05-25T00:42:28.659Z,0.00
2018-05-25T00:44:23.631Z,0.00
2018-05-25T00:45:23.131Z,0.00
2018-05-25T00:47:17.581Z,0.00
2018-05-25T00:48:17.585Z,0.00
2018-05-25T00:50:12.044Z,0.00
2018-05-25T00:51:12.035Z,0.00
2018-05-25T00:53:06.484Z,0.00
2018-05-25T00:54:06.481Z,0.00
2018-05-25T00:56:00.959Z,0.00
2018-05-25T00:57:00.949Z,0.00
2018-05-25T00:58:55.905Z,0.00
2018-05-25T00:59:55.418Z,0.00
2018-05-25T01:01:50.348Z,0.00
2018-05-25T01:02:49.844Z,0.00
2018-05-25T01:04:45.317Z,0.00
2018-05-25T01:05:44.300Z,0.00
2018-05-25T01:07:37.756Z,0.00
2018-05-25T01:08:38.682Z,0.00
2018-05-25T01:10:31.715Z,0.00
2018-05-25T01:11:31.302Z,0.00
2018-05-25T01:13:24.672Z,0.00
2018-05-25T01:14:25.681Z,0.00
2018-05-25T01:16:20.572Z,0.00
2018-05-25T01:17:19.145Z,0.00
2018-05-25T01:19:13.585Z,0.00
2018-05-25T01:20:13.596Z,0.00
2018-05-25T01:22:08.053Z,0.00
2018-05-25T01:23:07.045Z,0.00
2018-05-25T01:25:02.993Z,0.00
2018-05-25T01:26:03.002Z,0.00
2018-05-25T01:27:57.480Z,0.00
2018-05-25T01:28:57.449Z,0.00
2018-05-25T01:30:50.926Z,0.00
2018-05-25T01:31:50.861Z,0.00
2018-05-25T01:33:46.817Z,0.00
2018-05-25T01:34:47.329Z,0.00
2018-05-25T01:36:41.276Z,0.00
2018-05-25T01:37:41.273Z,0.00
2018-05-25T01:39:34.731Z,0.00
2018-05-25T01:40:34.724Z,0.00
2018-05-25T01:42:28.184Z,0.00
2018-05-25T01:43:28.687Z,0.00
2018-05-25T01:45:23.162Z,0.00
2018-05-25T01:46:22.647Z,0.00
2018-05-25T01:48:18.096Z,0.00
2018-05-25T01:49:17.079Z,0.00
2018-05-25T01:51:12.045Z,0.00
2018-05-25T01:52:11.506Z,0.00
2018-05-25T01:54:05.976Z,0.00
2018-05-25T01:55:05.957Z,0.00
2018-05-25T01:57:01.945Z,0.00
2018-05-25T01:58:01.918Z,0.00
2018-05-25T01:59:56.379Z,0.00
2018-05-25T02:00:56.384Z,0.00
2018-05-25T02:02:52.317Z,0.00
2018-05-25T02:03:52.319Z,0.00
2018-05-25T02:05:46.282Z,0.00
2018-05-25T02:06:45.781Z,0.00
2018-05-25T02:08:39.740Z,0.00
2018-05-25T02:09:39.237Z,0.00
2018-05-25T02:11:35.200Z,0.00
2018-05-25T02:12:35.152Z,0.00
2018-05-25T02:14:30.158Z,0.00
2018-05-25T02:15:29.585Z,0.00
2018-05-25T02:17:25.550Z,0.00
2018-05-25T02:18:25.548Z,0.00
2018-05-25T02:20:19.006Z,0.00
2018-05-25T02:21:19.507Z,0.00
2018-05-25T02:23:13.445Z,0.00
2018-05-25T02:24:13.455Z,0.00
2018-05-25T02:26:09.417Z,0.00
2018-05-25T02:27:09.400Z,0.00
2018-05-25T02:29:04.369Z,0.00
2018-05-25T02:30:03.873Z,0.00
2018-05-25T02:32:00.828Z,0.00
2018-05-25T02:33:00.328Z,0.00
2018-05-25T02:34:53.277Z,0.00
2018-05-25T02:35:53.272Z,0.00
2018-05-25T02:37:48.235Z,0.00
2018-05-25T02:38:48.661Z,0.00
2018-05-25T02:40:41.188Z,0.00
2018-05-25T02:41:41.184Z,0.00
2018-05-25T02:43:38.147Z,0.00
2018-05-25T02:44:37.652Z,0.00
2018-05-25T02:46:30.617Z,0.00
2018-05-25T02:47:30.623Z,0.00
2018-05-25T02:49:25.092Z,0.00
2018-05-25T02:50:26.076Z,0.00
2018-05-25T02:52:20.045Z,0.00
2018-05-25T02:53:19.558Z,0.00
2018-05-25T02:55:14.497Z,0.00
2018-05-25T02:56:13.994Z,0.00
2018-05-25T02:58:08.482Z,0.00
2018-05-25T02:59:08.443Z,0.00
2018-05-25T03:01:02.865Z,0.00
2018-05-25T03:02:02.850Z,0.00
2018-05-25T03:03:57.330Z,0.00
2018-05-25T03:04:57.305Z,0.00
2018-05-25T03:06:53.286Z,0.00
2018-05-25T03:07:53.764Z,0.00
2018-05-25T03:09:46.735Z,0.00
2018-05-25T03:10:46.699Z,0.00
2018-05-25T03:12:42.693Z,0.00
2018-05-25T03:13:43.170Z,0.00
2018-05-25T03:15:37.142Z,0.00
2018-05-25T03:16:37.130Z,0.00
2018-05-25T03:18:31.085Z,0.00
2018-05-25T03:19:30.568Z,0.00
2018-05-25T03:21:25.543Z,0.00
2018-05-25T03:22:25.042Z,0.00
2018-05-25T03:24:19.966Z,0.00
2018-05-25T03:25:19.444Z,0.00
2018-05-25T03:27:15.907Z,0.00
2018-05-25T03:28:15.391Z,0.00
2018-05-25T03:30:10.843Z,0.00
2018-05-25T03:31:10.854Z,0.00
2018-05-25T03:33:04.331Z,5.63
2018-05-25T03:34:05.298Z,5.63
2018-05-25T03:36:00.287Z,5.63
2018-05-25T03:37:00.763Z,5.63
2018-05-25T03:38:54.744Z,5.63
2018-05-25T03:39:54.720Z,5.63
2018-05-25T03:41:48.183Z,5.63
2018-05-25T03:42:48.179Z,5.63
2018-05-25T03:44:43.128Z,5.63
2018-05-25T03:45:42.607Z,11.25
2018-05-25T03:47:36.062Z,11.25
2018-05-25T03:48:36.090Z,11.25
2018-05-25T03:50:32.033Z,11.25
2018-05-25T03:51:32.527Z,11.25
2018-05-25T03:53:25.978Z,11.25
2018-05-25T03:54:26.487Z,11.25
2018-05-25T03:56:19.937Z,16.88
2018-05-25T03:57:19.938Z,16.88
2018-05-25T03:59:15.391Z,16.88
2018-05-25T04:00:14.388Z,16.88
2018-05-25T04:02:10.363Z,16.88
2018-05-25T04:03:10.351Z,22.50
2018-05-25T04:05:05.299Z,22.50
2018-05-25T04:06:04.808Z,22.50
2018-05-25T04:08:00.191Z,28.13
2018-05-25T04:09:00.251Z,28.13
2018-05-25T04:10:55.190Z,33.75
2018-05-25T04:11:55.180Z,33.75
2018-05-25T04:13:51.158Z,39.38
2018-05-25T04:14:51.155Z,39.38
2018-05-25T04:16:45.626Z,39.38
2018-05-25T04:17:45.595Z,39.38
2018-05-25T04:19:40.035Z,45.00
2018-05-25T04:20:40.057Z,45.00
2018-05-25T04:22:34.999Z,45.00
2018-05-25T04:23:34.494Z,50.63
2018-05-25T04:25:30.482Z,50.63
2018-05-25T04:26:30.444Z,50.63
2018-05-25T04:28:24.927Z,56.25
2018-05-25T04:29:24.901Z,56.25
2018-05-25T04:31:18.399Z,61.88
2018-05-25T04:32:18.302Z,61.88
2018-05-25T04:34:11.781Z,67.50
2018-05-25T04:35:11.782Z,67.50
2018-05-25T04:37:06.737Z,73.13
2018-05-25T04:38:06.229Z,73.13
2018-05-25T04:40:02.204Z,78.75
2018-05-25T04:41:02.175Z,84.38
2018-05-25T04:42:56.655Z,95.63
2018-05-25T04:43:56.609Z,95.63
2018-05-25T04:45:52.596Z,106.88
2018-05-25T04:46:52.599Z,106.88
2018-05-25T04:48:48.514Z,112.50
2018-05-25T04:49:48.536Z,112.50
2018-05-25T04:51:44.455Z,118.13
2018-05-25T04:52:44.454Z,123.75
2018-05-25T04:54:40.924Z,151.88
2018-05-25T04:55:40.927Z,168.75
2018-05-25T04:57:35.374Z,180.00
2018-05-25T04:58:34.859Z,180.00
2018-05-25T05:00:30.853Z,185.63
2018-05-25T05:01:31.826Z,185.63
2018-05-25T05:03:26.734Z,196.88
2018-05-25T05:04:25.296Z,196.88
2018-05-25T05:06:21.277Z,168.75
2018-05-25T05:07:21.260Z,174.38
2018-05-25T05:09:17.229Z,168.75
2018-05-25T05:10:18.226Z,163.13
2018-05-25T05:12:11.667Z,196.88
2018-05-25T05:13:13.209Z,191.25
2018-05-25T05:15:09.131Z,168.75
2018-05-25T05:16:06.141Z,151.88
2018-05-25T05:18:00.628Z,157.50
2018-05-25T05:19:00.610Z,163.13
2018-05-25T05:20:56.513Z,163.13
2018-05-25T05:21:56.567Z,163.13
2018-05-25T05:23:53.480Z,180.00
2018-05-25T05:24:52.505Z,168.75
2018-05-25T05:26:47.000Z,196.88
2018-05-25T05:27:48.448Z,219.38
2018-05-25T05:29:40.417Z,230.63
2018-05-25T05:30:41.408Z,236.25
2018-05-25T05:32:36.381Z,241.88
2018-05-25T05:33:36.393Z,247.50
2018-05-25T05:35:29.817Z,247.50
2018-05-25T05:36:29.805Z,253.13
2018-05-25T05:38:25.763Z,241.88
2018-05-25T05:39:25.765Z,264.38
2018-05-25T05:41:21.746Z,253.13
2018-05-25T05:42:22.217Z,258.75
2018-05-25T05:44:17.670Z,264.38
2018-05-25T05:45:17.664Z,253.13
2018-05-25T05:47:12.110Z,253.13
2018-05-25T05:48:12.117Z,247.50
2018-05-25T05:50:06.576Z,275.63
2018-05-25T05:51:06.571Z,270.00
2018-05-25T05:53:01.041Z,286.88
2018-05-25T05:54:01.026Z,281.25
2018-05-25T05:55:55.497Z,303.75
2018-05-25T05:56:55.987Z,298.13
2018-05-25T05:58:52.447Z,315.00
2018-05-25T05:59:51.944Z,331.88
2018-05-25T06:01:45.935Z,331.88
2018-05-25T06:02:45.893Z,326.25
2018-05-25T06:04:40.344Z,337.50
2018-05-25T06:05:40.354Z,326.25
2018-05-25T06:07:36.315Z,331.88
2018-05-25T06:08:34.778Z,303.75
2018-05-25T06:10:29.754Z,315.00
2018-05-25T06:11:29.247Z,337.50
2018-05-25T06:13:25.711Z,331.88
2018-05-25T06:14:25.201Z,343.13
2018-05-25T06:16:22.162Z,354.38
2018-05-25T06:17:21.154Z,348.75
2018-05-25T06:19:16.692Z,337.50
2018-05-25T06:20:15.609Z,354.38
2018-05-25T06:22:09.068Z,365.63
2018-05-25T06:23:09.058Z,331.88
2018-05-25T06:25:03.054Z,343.13
2018-05-25T06:26:02.521Z,331.88
2018-05-25T06:28:00.485Z,337.50
2018-05-25T06:28:58.991Z,354.38
2018-05-25T06:30:54.477Z,388.13
2018-05-25T06:31:55.367Z,337.50
2018-05-25T06:33:48.877Z,348.75
2018-05-25T06:34:48.889Z,354.38
2018-05-25T06:36:45.765Z,320.63
2018-05-25T06:37:44.800Z,348.75
2018-05-25T06:39:40.790Z,416.25
2018-05-25T06:40:41.775Z,360.00
2018-05-25T06:42:35.275Z,371.25
2018-05-25T06:43:35.768Z,365.63
2018-05-25T06:45:31.695Z,348.75
2018-05-25T06:46:29.690Z,348.75
2018-05-25T06:48:26.655Z,348.75
2018-05-25T06:49:26.647Z,365.63
2018-05-25T06:51:23.125Z,309.38
2018-05-25T06:52:21.589Z,292.50
2018-05-25T06:54:17.569Z,292.50
2018-05-25T06:55:17.570Z,292.50
2018-05-25T06:57:12.034Z,320.63
2018-05-25T06:58:11.025Z,315.00
2018-05-25T07:00:07.008Z,320.63
2018-05-25T07:01:07.479Z,315.00
2018-05-25T07:03:02.979Z,309.38
2018-05-25T07:04:02.974Z,309.38
2018-05-25T07:05:58.922Z,309.38
2018-05-25T07:06:58.947Z,303.75
2018-05-25T07:08:55.433Z,298.13
2018-05-25T07:09:54.914Z,298.13
2018-05-25T07:11:50.862Z,292.50
2018-05-25T07:12:51.354Z,303.75
2018-05-25T07:14:46.821Z,303.75
2018-05-25T07:15:48.300Z,298.13
2018-05-25T07:17:43.280Z,303.75
2018-05-25T07:18:44.266Z,298.13
2018-05-25T07:20:39.716Z,298.13
2018-05-25T07:21:38.745Z,303.75
2018-05-25T07:23:36.671Z,309.38
2018-05-25T07:24:34.680Z,309.38
2018-05-25T07:26:30.637Z,303.75
2018-05-25T07:27:31.635Z,326.25
2018-05-25T07:29:27.140Z,309.38
2018-05-25T07:30:27.617Z,303.75
2018-05-25T07:32:24.089Z,309.38
2018-05-25T07:33:22.591Z,309.38
2018-05-25T07:35:19.066Z,309.38
2018-05-25T07:36:19.044Z,331.88
2018-05-25T07:38:12.022Z,326.25
2018-05-25T07:39:12.012Z,309.38
2018-05-25T07:41:07.976Z,315.00
2018-05-25T07:42:09.465Z,320.63
2018-05-25T07:44:03.889Z,331.88
2018-05-25T07:45:03.947Z,331.88
2018-05-25T07:46:59.854Z,326.25
2018-05-25T07:47:59.853Z,326.25
2018-05-25T07:49:56.328Z,337.50
2018-05-25T07:50:55.814Z,320.63
2018-05-25T07:52:59.768Z,326.25
2018-05-25T07:53:57.784Z,320.63
2018-05-25T07:55:52.754Z,320.63
2018-05-25T07:56:53.253Z,320.63
2018-05-25T07:58:49.155Z,315.00
2018-05-25T07:59:48.236Z,320.63
2018-05-25T08:01:44.727Z,309.38
2018-05-25T08:02:44.154Z,315.00
2018-05-25T08:04:40.646Z,315.00
2018-05-25T08:05:40.127Z,320.63
2018-05-25T08:07:37.097Z,337.50
2018-05-25T08:08:36.100Z,326.25
2018-05-25T08:10:40.235Z,309.38
2018-05-25T08:11:41.062Z,303.75
2018-05-25T08:13:36.189Z,298.13
2018-05-25T08:14:36.200Z,298.13
2018-05-25T08:16:34.195Z,298.13
2018-05-25T08:17:34.232Z,298.13
2018-05-25T08:19:30.635Z,292.50
2018-05-25T08:20:30.159Z,292.50
2018-05-25T08:22:29.659Z,298.13
2018-05-25T08:23:29.100Z,298.13
2018-05-25T08:25:25.210Z,286.88
2018-05-25T08:26:24.765Z,298.13
2018-05-25T08:28:22.177Z,298.13
2018-05-25T08:29:22.219Z,292.50
2018-05-25T08:31:19.723Z,309.38
2018-05-25T08:32:19.665Z,309.38
2018-05-25T08:34:17.094Z,309.38
2018-05-25T08:35:18.011Z,320.63
2018-05-25T08:37:14.067Z,303.75
2018-05-25T08:38:13.584Z,303.75
2018-05-25T08:40:09.064Z,303.75
2018-05-25T08:41:09.021Z,270.00
2018-05-25T08:43:07.483Z,315.00
2018-05-25T08:44:06.977Z,348.75
2018-05-25T08:46:05.439Z,348.75
2018-05-25T08:47:05.113Z,292.50
2018-05-25T08:49:02.573Z,303.75
2018-05-25T08:50:02.068Z,303.75
2018-05-25T08:51:58.058Z,286.88
2018-05-25T08:52:59.042Z,270.00
2018-05-25T08:54:53.998Z,286.88
2018-05-25T08:55:54.024Z,275.63
2018-05-25T08:57:53.483Z,258.75
2018-05-25T08:58:52.197Z,247.50
2018-05-25T09:00:49.659Z,275.63
2018-05-25T09:01:49.653Z,286.88
2018-05-25T09:03:44.085Z,303.75
2018-05-25T09:06:02.981Z,281.25
2018-05-25T09:07:04.040Z,281.25
2018-05-25T09:08:58.031Z,298.13
2018-05-25T09:09:58.032Z,292.50
2018-05-25T09:11:52.509Z,298.13
2018-05-25T09:12:53.494Z,286.88
2018-05-25T09:14:48.494Z,292.50
2018-05-25T09:15:48.467Z,298.13
2018-05-25T09:17:43.441Z,309.38
2018-05-25T09:18:41.998Z,303.75
2018-05-25T09:20:36.467Z,298.13
2018-05-25T09:21:38.477Z,281.25
2018-05-25T09:23:33.945Z,315.00
2018-05-25T09:24:33.434Z,309.38
2018-05-25T09:26:29.930Z,303.75
2018-05-25T09:27:29.425Z,292.50
2018-05-25T09:29:24.453Z,281.25
2018-05-25T09:30:24.471Z,281.25
2018-05-25T09:32:17.938Z,275.63
2018-05-25T09:33:18.914Z,270.00
2018-05-25T09:35:13.897Z,281.25
2018-05-25T09:36:13.909Z,281.25
2018-05-25T09:38:12.379Z,320.63
2018-05-25T09:39:10.891Z,331.88
2018-05-25T09:41:07.376Z,326.25
2018-05-25T09:42:07.300Z,298.13
2018-05-25T09:44:01.930Z,258.75
2018-05-25T09:45:02.728Z,253.13
2018-05-25T09:46:58.833Z,309.38
2018-05-25T09:49:13.841Z,337.50
2018-05-25T09:50:13.845Z,270.00
2018-05-25T09:52:09.809Z,264.38
2018-05-25T09:53:09.808Z,331.88
2018-05-25T09:55:06.773Z,450.00
2018-05-25T09:57:21.741Z,393.75
2018-05-25T09:58:22.233Z,326.25
2018-05-25T10:00:18.696Z,303.75
2018-05-25T10:01:18.704Z,365.63
2018-05-25T10:03:15.227Z,388.13
2018-05-25T10:04:13.710Z,388.13
2018-05-25T10:06:10.687Z,376.88
2018-05-25T10:07:09.705Z,298.13
2018-05-25T10:09:07.714Z,247.50
2018-05-25T10:10:06.671Z,258.75
2018-05-25T10:12:00.182Z,281.25
2018-05-25T10:13:00.180Z,303.75
2018-05-25T10:14:56.705Z,371.25
2018-05-25T10:15:57.149Z,382.50
2018-05-25T10:17:53.168Z,331.88
2018-05-25T10:18:53.140Z,298.13
2018-05-25T10:20:45.633Z,270.00
2018-05-25T10:21:46.125Z,258.75
2018-05-25T10:23:42.106Z,264.38
2018-05-25T10:26:37.567Z,348.75
2018-05-25T10:27:38.568Z,337.50
2018-05-25T10:29:31.537Z,309.38
2018-05-25T10:30:31.048Z,326.25
2018-05-25T10:32:27.021Z,298.13
2018-05-25T10:33:26.996Z,286.88
2018-05-25T10:35:22.973Z,281.25
2018-05-25T10:36:22.957Z,264.38
2018-05-25T10:38:19.453Z,303.75
2018-05-25T10:39:18.941Z,348.75
2018-05-25T10:41:15.491Z,388.13
2018-05-25T10:42:15.412Z,365.63
2018-05-25T10:44:12.839Z,292.50
2018-05-25T10:45:12.837Z,281.25
2018-05-25T10:47:09.324Z,354.38
2018-05-25T10:48:09.815Z,388.13
2018-05-25T10:50:05.316Z,382.50
2018-05-25T10:51:05.320Z,376.88
2018-05-25T10:53:00.782Z,326.25
2018-05-25T10:53:59.281Z,309.38
2018-05-25T10:55:56.800Z,309.38
2018-05-25T10:58:11.271Z,253.13
2018-05-25T10:59:11.230Z,253.13
2018-05-25T11:01:08.201Z,320.63
2018-05-25T11:02:08.727Z,382.50
2018-05-25T11:04:06.163Z,399.38
2018-05-25T11:05:06.147Z,405.00
2018-05-25T11:07:01.111Z,376.88
2018-05-25T11:08:01.116Z,382.50
2018-05-25T11:09:57.117Z,371.25
2018-05-25T11:10:57.096Z,360.00
2018-05-25T11:12:54.557Z,376.88
2018-05-25T11:13:53.060Z,393.75
2018-05-25T11:15:48.028Z,455.63
2018-05-25T11:16:47.524Z,433.13
2018-05-25T11:18:43.525Z,399.38
2018-05-25T11:19:43.514Z,393.75
2018-05-25T11:21:39.981Z,399.38
2018-05-25T11:22:39.442Z,343.13
2018-05-25T11:24:35.439Z,270.00
2018-05-25T11:25:35.427Z,258.75
2018-05-25T11:27:31.399Z,303.75
2018-05-25T11:28:31.401Z,309.38
2018-05-25T11:30:28.855Z,343.13
2018-05-25T11:31:28.360Z,371.25
2018-05-25T11:33:23.364Z,405.00
2018-05-25T11:34:23.370Z,416.25
2018-05-25T11:36:19.339Z,382.50
2018-05-25T11:37:19.339Z,376.88
2018-05-25T11:39:14.339Z,421.88
2018-05-25T11:40:14.811Z,461.25
2018-05-25T11:42:08.342Z,405.00
2018-05-25T11:43:09.311Z,376.88
2018-05-25T11:45:03.334Z,348.75
2018-05-25T11:46:02.854Z,348.75
2018-05-25T11:47:58.774Z,303.75
2018-05-25T11:48:58.804Z,281.25
2018-05-25T11:50:53.761Z,264.38
2018-05-25T11:51:53.762Z,264.38
2018-05-25T11:53:49.219Z,281.25
2018-05-25T11:54:49.208Z,286.88
2018-05-25T11:56:43.686Z,315.00
2018-05-25T11:57:45.173Z,337.50
2018-05-25T11:59:39.642Z,376.88
2018-05-25T12:00:40.635Z,388.13
2018-05-25T12:02:37.043Z,399.38
2018-05-25T12:03:35.617Z,376.88
2018-05-25T12:05:32.504Z,360.00
2018-05-25T12:06:31.648Z,326.25
2018-05-25T12:08:29.535Z,309.38
2018-05-25T12:09:29.557Z,315.00
2018-05-25T12:11:25.500Z,315.00
2018-05-25T12:12:25.507Z,331.88
2018-05-25T12:14:21.492Z,331.88
2018-05-25T12:15:21.486Z,337.50
2018-05-25T12:17:17.443Z,320.63
2018-05-25T12:18:17.455Z,326.25
2018-05-25T12:20:14.421Z,331.88
2018-05-25T12:21:14.454Z,337.50
2018-05-25T12:23:10.400Z,343.13
2018-05-25T12:24:09.476Z,343.13
2018-05-25T12:26:05.437Z,343.13
2018-05-25T12:28:22.930Z,309.38
2018-05-25T12:29:21.406Z,309.38
2018-05-25T12:31:17.883Z,309.38
2018-05-25T12:32:17.397Z,309.38
2018-05-25T12:34:13.305Z,303.75
2018-05-25T12:35:13.312Z,303.75
2018-05-25T12:37:09.275Z,309.38
2018-05-25T12:38:09.271Z,303.75
2018-05-25T12:40:04.229Z,303.75
2018-05-25T12:41:05.727Z,309.38
2018-05-25T12:42:59.723Z,315.00
2018-05-25T12:45:55.185Z,360.00
2018-05-25T12:46:54.689Z,360.00
2018-05-25T12:48:53.947Z,360.00
2018-05-25T12:54:08.347Z,354.38
2018-05-25T12:56:58.297Z,320.63
2018-05-25T12:57:56.364Z,315.00
2018-05-25T12:59:53.323Z,326.25
2018-05-25T13:00:52.365Z,326.25
2018-05-25T13:02:48.291Z,326.25
2018-05-25T13:03:49.289Z,326.25
2018-05-25T13:05:44.251Z,320.63
2018-05-25T13:08:40.240Z,320.63
2018-05-25T13:09:40.236Z,343.13
2018-05-25T13:11:36.203Z,343.13
2018-05-25T13:12:34.691Z,360.00
2018-05-25T13:14:30.172Z,365.63
2018-05-25T13:15:30.150Z,365.63
2018-05-25T13:17:25.687Z,326.25
2018-05-25T13:18:25.140Z,326.25
2018-05-25T13:20:21.126Z,286.88
2018-05-25T13:21:22.105Z,275.63
2018-05-25T13:23:18.603Z,286.88
2018-05-25T13:25:33.579Z,292.50
2018-05-25T13:26:33.553Z,286.88
2018-05-25T13:28:29.023Z,281.25
2018-05-25T13:29:30.009Z,275.63
2018-05-25T13:31:25.980Z,270.00
2018-05-25T13:32:26.421Z,264.38
2018-05-25T13:34:20.960Z,258.75
2018-05-25T13:35:21.927Z,258.75
2018-05-25T13:37:17.409Z,264.38
2018-05-25T13:38:17.402Z,264.38
2018-05-25T13:40:12.890Z,258.75
2018-05-25T13:41:12.868Z,253.13
2018-05-25T13:43:08.834Z,253.13
2018-05-25T13:44:08.844Z,253.13
2018-05-25T13:46:04.817Z,258.75
2018-05-25T13:47:04.812Z,258.75
2018-05-25T13:49:05.293Z,253.13
2018-05-25T13:50:06.265Z,258.75
2018-05-25T13:52:06.267Z,275.63
2018-05-25T13:53:06.753Z,286.88
2018-05-25T13:55:02.733Z,298.13
2018-05-25T13:56:02.757Z,298.13
2018-05-25T13:57:58.217Z,281.25
2018-05-25T13:58:57.738Z,281.25
2018-05-25T14:00:55.703Z,281.25
2018-05-25T14:01:55.772Z,281.25
2018-05-25T14:03:53.765Z,286.88
2018-05-25T14:04:53.669Z,286.88
2018-05-25T14:06:49.677Z,281.25
2018-05-25T14:07:49.664Z,275.63
2018-05-25T14:09:47.647Z,270.00
2018-05-25T14:10:47.642Z,258.75
2018-05-25T14:12:44.639Z,253.13
2018-05-25T14:13:43.647Z,258.75
2018-05-25T14:15:39.581Z,292.50
2018-05-25T14:16:39.579Z,320.63
2018-05-25T14:18:35.621Z,371.25
2018-05-25T14:20:51.726Z,371.25
2018-05-25T14:21:51.485Z,371.25
2018-05-25T14:23:47.491Z,365.63
2018-05-25T14:24:47.474Z,382.50
2018-05-25T14:26:44.463Z,320.63
2018-05-25T14:28:59.948Z,275.63
2018-05-25T14:30:00.444Z,275.63
2018-05-25T14:31:55.434Z,253.13
2018-05-25T14:32:55.414Z,241.88
2018-05-25T14:34:53.387Z,247.50
2018-05-25T14:37:08.897Z,247.50
2018-05-25T14:38:07.422Z,258.75
2018-05-25T14:40:05.791Z,264.38
2018-05-25T14:41:04.354Z,264.38
2018-05-25T14:43:01.898Z,281.25
2018-05-25T14:44:01.552Z,286.88
2018-05-25T14:46:04.566Z,270.00
2018-05-25T14:46:59.505Z,258.75
2018-05-25T14:48:56.479Z,236.25
2018-05-25T14:49:56.482Z,225.00
2018-05-25T14:51:55.984Z,225.00
2018-05-25T14:52:51.477Z,213.75
2018-05-25T14:54:49.591Z,174.38
2018-05-25T14:55:50.443Z,163.13
2018-05-25T14:57:46.610Z,168.75
2018-05-25T14:58:46.519Z,168.75
2018-05-25T15:00:42.606Z,174.38
2018-05-25T15:01:41.672Z,185.63
2018-05-25T15:03:38.633Z,230.63
2018-05-25T15:05:55.581Z,258.75
2018-05-25T15:06:54.604Z,247.50
2018-05-25T15:09:15.575Z,230.63
2018-05-25T15:10:13.074Z,236.25
2018-05-25T15:12:11.303Z,208.13
2018-05-25T15:13:11.383Z,213.75
2018-05-25T15:15:09.947Z,208.13
2018-05-25T15:16:10.459Z,208.13
2018-05-25T15:18:07.420Z,208.13
2018-05-25T15:19:07.427Z,185.63
2018-05-25T15:21:04.755Z,196.88
2018-05-25T15:22:04.554Z,202.50
2018-05-25T15:24:03.160Z,191.25
2018-05-25T15:25:02.530Z,180.00
2018-05-25T15:27:01.045Z,168.75
2018-05-25T15:28:00.509Z,168.75
2018-05-25T15:29:59.005Z,168.75
2018-05-25T15:30:58.681Z,174.38
2018-05-25T15:32:58.141Z,168.75
2018-05-25T15:33:56.844Z,168.75
2018-05-25T15:35:54.887Z,168.75
2018-05-25T15:36:54.792Z,168.75
2018-05-25T15:38:53.722Z,185.63
2018-05-25T15:39:53.620Z,185.63
2018-05-25T15:41:50.139Z,191.25
2018-05-25T15:42:49.611Z,196.88
2018-05-25T15:44:45.596Z,202.50
2018-05-25T15:45:46.589Z,202.50
2018-05-25T15:47:42.577Z,213.75
2018-05-25T15:48:42.433Z,225.00
2018-05-25T15:50:42.908Z,258.75
2018-05-25T15:51:42.902Z,275.63
2018-05-25T15:53:39.393Z,292.50
2018-05-25T15:54:38.857Z,286.88
2018-05-25T15:56:35.354Z,275.63
2018-05-25T15:57:35.362Z,258.75
2018-05-25T15:59:36.316Z,219.38
2018-05-25T16:00:36.303Z,219.38
2018-05-25T16:02:33.373Z,196.88
2018-05-25T16:03:34.333Z,196.88
2018-05-25T16:05:31.352Z,213.75
2018-05-25T16:06:31.481Z,241.88
2018-05-25T16:08:29.537Z,275.63
2018-05-25T16:09:30.307Z,292.50
2018-05-25T16:11:27.980Z,303.75
2018-05-25T16:12:27.448Z,286.88
2018-05-25T16:14:25.588Z,258.75
2018-05-25T16:15:25.593Z,230.63
2018-05-25T16:17:22.600Z,213.75
2018-05-25T16:18:22.566Z,208.13
2018-05-25T16:20:17.539Z,191.25
2018-05-25T16:21:17.060Z,174.38
2018-05-25T16:23:15.019Z,146.25
2018-05-25T16:24:14.996Z,135.00
2018-05-25T16:26:13.243Z,135.00
2018-05-25T16:27:14.013Z,135.00
2018-05-25T16:29:09.703Z,140.63
2018-05-25T16:30:10.060Z,140.63
2018-05-25T16:32:08.615Z,146.25
2018-05-25T16:33:07.274Z,157.50
2018-05-25T16:35:06.272Z,174.38
2018-05-25T16:36:05.548Z,180.00
2018-05-25T16:38:01.418Z,185.63
2018-05-25T16:39:02.335Z,191.25
2018-05-25T16:40:59.904Z,146.25
2018-05-25T16:41:59.551Z,129.38
2018-05-25T16:43:57.596Z,106.88
2018-05-25T16:44:58.528Z,101.25
2018-05-25T16:46:59.026Z,112.50
2018-05-25T16:47:56.506Z,118.13
2018-05-25T16:49:53.658Z,118.13
2018-05-25T16:50:53.700Z,112.50
2018-05-25T16:52:54.158Z,84.38
2018-05-25T16:53:54.136Z,84.38
2018-05-25T16:55:51.597Z,84.38
2018-05-25T16:56:50.618Z,84.38
2018-05-25T16:58:46.109Z,95.63
2018-05-25T16:59:46.080Z,84.38
2018-05-25T17:01:42.565Z,84.38
2018-05-25T17:02:42.543Z,78.75
2018-05-25T17:04:42.529Z,78.75
2018-05-25T17:05:43.530Z,78.75
2018-05-25T17:07:38.542Z,78.75
2018-05-25T17:08:38.496Z,78.75
2018-05-25T17:10:37.586Z,78.75
2018-05-25T17:11:36.716Z,73.13
2018-05-25T17:13:35.185Z,73.13
2018-05-25T17:14:34.803Z,73.13
2018-05-25T17:16:31.277Z,78.75
2018-05-25T17:17:30.776Z,78.75
2018-05-25T17:19:26.730Z,78.75
2018-05-25T17:20:28.296Z,78.75
2018-05-25T17:22:22.683Z,78.75
2018-05-25T17:23:24.254Z,78.75
2018-05-25T17:25:21.695Z,78.75
2018-05-25T17:26:20.844Z,78.75
2018-05-25T17:28:17.311Z,73.13
2018-05-25T17:31:17.304Z,73.13
2018-05-25T17:32:17.824Z,73.13
2018-05-25T17:34:15.515Z,78.75
2018-05-25T17:35:17.263Z,84.38
2018-05-25T17:37:17.951Z,90.00
2018-05-25T17:38:16.020Z,84.38
2018-05-25T17:40:14.079Z,78.75
2018-05-25T17:41:14.123Z,73.13
2018-05-25T17:43:11.078Z,73.13
2018-05-25T17:44:11.603Z,67.50
2018-05-25T17:46:07.569Z,73.13
2018-05-25T17:47:07.508Z,73.13
2018-05-25T17:49:03.502Z,73.13
2018-05-25T17:50:02.988Z,67.50
2018-05-25T17:52:01.491Z,67.50
2018-05-25T17:53:01.928Z,67.50
2018-05-25T17:55:02.671Z,61.88
2018-05-25T17:56:02.594Z,61.88
2018-05-25T17:58:03.071Z,61.88
2018-05-25T17:59:03.552Z,56.25
2018-05-25T18:01:01.189Z,61.88
2018-05-25T18:02:01.195Z,56.25
2018-05-25T18:04:00.623Z,56.25
2018-05-25T18:04:59.127Z,56.25
2018-05-25T18:06:55.111Z,56.25
2018-05-25T18:07:56.098Z,56.25
2018-05-25T18:09:54.084Z,61.88
2018-05-25T18:10:53.066Z,61.88
2018-05-25T18:12:51.052Z,61.88
2018-05-25T18:13:51.544Z,61.88
2018-05-25T18:15:52.499Z,61.88
2018-05-25T18:16:51.496Z,61.88
2018-05-25T18:18:47.526Z,56.25
2018-05-25T18:19:47.483Z,56.25
2018-05-25T18:21:43.948Z,50.63
2018-05-25T18:22:43.412Z,50.63
2018-05-25T18:24:43.801Z,45.00
2018-05-25T18:25:41.553Z,45.00
2018-05-25T18:27:39.509Z,39.38
2018-05-25T18:28:39.513Z,39.38
2018-05-25T18:30:38.987Z,33.75
2018-05-25T18:31:37.724Z,33.75
2018-05-25T18:33:37.540Z,33.75
2018-05-25T18:34:35.813Z,33.75
2018-05-25T18:36:33.746Z,28.13
2018-05-25T18:37:33.762Z,28.13
2018-05-25T18:39:31.739Z,28.13
2018-05-25T18:40:32.744Z,28.13
2018-05-25T18:42:29.944Z,28.13
2018-05-25T18:43:29.913Z,28.13
2018-05-25T18:45:27.900Z,28.13
2018-05-25T18:46:27.895Z,22.50
2018-05-25T18:48:26.374Z,22.50
2018-05-25T18:49:26.779Z,22.50
2018-05-25T18:51:23.846Z,22.50
2018-05-25T18:52:23.781Z,22.50
2018-05-25T18:54:20.270Z,22.50
2018-05-25T18:55:20.276Z,22.50
2018-05-25T18:57:15.725Z,16.88